Time;durP1;ratioP1;P1;durP2;ratioP2;P2;SDS_P1;SDS_P2;PMS_P1;PMS_P2;Temp;Humidity;BMP_temperature;BMP_pressure;BME280_temperature;BME280_humidity;BME280_pressure;Samples;Min_cycle;Max_cycle;Signal;HPM_P1;HPM_P2
2022/09/21 00:00:53;;;;;;;;;;;10.50;57.80;;;;;;5092411;28;19963;-90
2022/09/21 00:03:19;;;;;;;;;;;10.50;57.90;;;;;;5095016;28;19912;-89
2022/09/21 00:05:44;;;;;;;;;;;10.50;58.00;;;;;;5092047;28;19927;-86
2022/09/21 00:08:11;;;;;;;;;;;10.50;58.00;;;;;;5092924;28;19974;-88
2022/09/21 00:10:36;;;;;;;;;;;10.40;58.00;;;;;;5094043;28;19916;-92
2022/09/21 00:13:03;;;;;;;;;;;10.50;57.80;;;;;;5092750;28;19915;-93
2022/09/21 00:15:29;;;;;;;;;;;10.40;57.90;;;;;;5093513;28;19921;-88
2022/09/21 00:17:56;;;;;;;;;;;10.40;57.90;;;;;;5093741;28;20373;-85
2022/09/21 00:20:21;;;;;;;;;;;10.30;57.80;;;;;;5092016;28;20375;-89
2022/09/21 00:22:47;;;;;;;;;;;10.30;57.80;;;;;;5092895;28;19923;-89
2022/09/21 00:25:13;;;;;;;;;;;10.30;57.80;;;;;;5092878;28;19924;-86
2022/09/21 00:27:39;;;;;;;;;;;10.30;57.80;;;;;;5095183;28;20378;-87
2022/09/21 00:30:05;;;;;;;;;;;10.20;57.80;;;;;;5091717;28;20414;-87
2022/09/21 00:32:32;;;;;;;;;;;10.20;57.80;;;;;;5093748;28;19908;-91
2022/09/21 00:34:57;;;;;;;;;;;10.20;57.80;;;;;;5071564;28;20014;-92
2022/09/21 00:37:23;;;;;;;;;;;10.20;57.90;;;;;;5072348;28;20334;-89
2022/09/21 00:39:49;;;;;;;;;;;10.20;58.00;;;;;;5072354;28;19908;-85
2022/09/21 00:42:17;;;;;;;;;;;10.20;58.00;;;;;;5070900;28;19909;-85
2022/09/21 00:44:42;;;;;;;;;;;10.10;58.00;;;;;;5073455;28;19969;-88
2022/09/21 00:47:10;;;;;;;;;;;10.10;57.90;;;;;;5073608;28;20907;-87
2022/09/21 00:49:36;;;;;;;;;;;10.10;57.90;;;;;;5071605;28;19908;-86
2022/09/21 00:52:04;;;;;;;;;;;10.10;57.90;;;;;;5072902;28;20386;-85
2022/09/21 00:54:32;;;;;;;;;;;10.00;57.80;;;;;;5075866;28;19908;-91
2022/09/21 00:57:01;;;;;;;;;;;9.90;57.80;;;;;;5073404;28;20444;-86
2022/09/21 00:59:28;;;;;;;;;;;10.00;57.80;;;;;;5071265;28;20388;-84
2022/09/21 01:01:53;;;;;;;;;;;9.90;57.80;;;;;;5075925;28;19923;-85
2022/09/21 01:04:20;;;;;;;;;;;9.90;57.70;;;;;;5074214;28;19917;-89
2022/09/21 01:06:46;;;;;;;;;;;9.90;57.70;;;;;;5074155;28;19966;-89
2022/09/21 01:09:12;;;;;;;;;;;9.90;57.70;;;;;;5071460;28;19951;-88
2022/09/21 01:12:01;;;;;;;;;;;9.80;57.60;;;;;;5075497;28;19917;-89
2022/09/21 01:14:39;;;;;;;;;;;9.80;57.70;;;;;;5052255;28;19909;-86
2022/09/21 01:17:13;;;;;;;;;;;9.80;57.80;;;;;;5073240;28;19916;-86
2022/09/21 01:19:52;;;;;;;;;;;9.80;58.00;;;;;;5070817;28;19913;-89
2022/09/21 01:22:29;;;;;;;;;;;9.80;58.00;;;;;;5073091;28;19920;-87
2022/09/21 01:25:04;;;;;;;;;;;9.80;57.90;;;;;;5073873;28;19956;-86
2022/09/21 01:27:48;;;;;;;;;;;9.70;57.90;;;;;;5073683;28;20003;-90
2022/09/21 01:30:15;;;;;;;;;;;9.70;58.00;;;;;;5071646;28;19919;-86
2022/09/21 01:32:43;;;;;;;;;;;9.70;58.00;;;;;;5075051;28;20003;-87
2022/09/21 01:35:19;;;;;;;;;;;9.70;58.20;;;;;;5090636;28;20716;-87
2022/09/21 01:37:53;;;;;;;;;;;9.70;58.40;;;;;;5093727;28;19927;-85
2022/09/21 01:40:28;;;;;;;;;;;9.60;58.60;;;;;;5091735;28;20475;-93
2022/09/21 01:42:55;;;;;;;;;;;9.60;58.50;;;;;;5089885;28;20003;-91
2022/09/21 01:45:25;;;;;;;;;;;9.60;58.40;;;;;;5091887;28;20328;-90
2022/09/21 01:47:51;;;;;;;;;;;9.50;58.30;;;;;;5091868;28;20359;-90
2022/09/21 01:50:17;;;;;;;;;;;9.50;58.20;;;;;;5090466;28;20004;-86
2022/09/21 01:52:53;;;;;;;;;;;9.50;58.30;;;;;;5090611;28;19912;-91
2022/09/21 01:55:22;;;;;;;;;;;9.50;58.40;;;;;;5089796;28;19927;-88
2022/09/21 01:57:53;;;;;;;;;;;9.50;58.60;;;;;;5090585;28;20434;-90
2022/09/21 02:00:19;;;;;;;;;;;9.50;58.60;;;;;;5091716;28;20340;-91
2022/09/21 02:02:47;;;;;;;;;;;9.40;58.60;;;;;;5089625;28;20390;-87
2022/09/21 02:05:15;;;;;;;;;;;9.40;58.60;;;;;;5091180;28;19928;-90
2022/09/21 02:07:41;;;;;;;;;;;9.40;58.60;;;;;;5090336;28;19912;-86
2022/09/21 02:10:08;;;;;;;;;;;9.50;58.70;;;;;;5090867;28;19912;-86
2022/09/21 02:12:33;;;;;;;;;;;9.50;58.70;;;;;;5089646;28;19912;-86
2022/09/21 02:15:00;;;;;;;;;;;9.50;58.70;;;;;;5090913;28;20294;-87
2022/09/21 02:17:33;;;;;;;;;;;9.40;58.70;;;;;;5090935;28;20359;-87
2022/09/21 02:20:08;;;;;;;;;;;9.40;58.80;;;;;;5090395;28;20266;-85
2022/09/21 02:22:46;;;;;;;;;;;9.40;58.60;;;;;;5089784;28;19915;-87
2022/09/21 02:25:14;;;;;;;;;;;9.30;58.40;;;;;;5090897;28;20461;-86
2022/09/21 02:27:59;;;;;;;;;;;9.30;58.30;;;;;;5090015;28;19981;-87
2022/09/21 02:30:25;;;;;;;;;;;9.30;58.40;;;;;;5089517;28;19923;-86
2022/09/21 02:32:54;;;;;;;;;;;9.20;58.50;;;;;;5084890;28;19917;-89
2022/09/21 02:35:22;;;;;;;;;;;9.20;58.40;;;;;;5070620;28;20027;-86
2022/09/21 02:37:55;;;;;;;;;;;9.20;58.30;;;;;;5070933;28;20379;-87
2022/09/21 02:40:21;;;;;;;;;;;9.10;58.30;;;;;;5069553;28;20007;-86
2022/09/21 02:42:49;;;;;;;;;;;9.10;58.40;;;;;;5070629;28;20383;-91
2022/09/21 02:45:18;;;;;;;;;;;9.10;58.40;;;;;;5075368;28;19924;-90
2022/09/21 02:47:49;;;;;;;;;;;9.10;58.50;;;;;;5074725;28;19939;-89
2022/09/21 02:50:38;;;;;;;;;;;9.00;58.60;;;;;;5074004;28;19952;-89
2022/09/21 02:53:05;;;;;;;;;;;9.00;58.70;;;;;;5067248;28;19908;-91
2022/09/21 02:55:32;;;;;;;;;;;9.00;58.80;;;;;;5073053;28;19924;-86
2022/09/21 02:57:58;;;;;;;;;;;9.00;58.80;;;;;;5073902;28;19915;-88
2022/09/21 03:00:24;;;;;;;;;;;9.00;59.00;;;;;;5072738;28;20290;-90
2022/09/21 03:02:50;;;;;;;;;;;9.10;59.00;;;;;;5073977;28;20418;-86
2022/09/21 03:05:15;;;;;;;;;;;9.00;59.10;;;;;;5072447;28;19925;-91
2022/09/21 03:07:41;;;;;;;;;;;9.00;59.10;;;;;;5073160;28;19919;-90
2022/09/21 03:10:08;;;;;;;;;;;9.00;59.00;;;;;;5072555;28;19917;-88
2022/09/21 03:12:33;;;;;;;;;;;9.00;59.00;;;;;;5073938;28;19915;-86
2022/09/21 03:14:59;;;;;;;;;;;9.00;58.90;;;;;;5072213;28;19924;-90
2022/09/21 03:17:26;;;;;;;;;;;9.00;58.80;;;;;;5072203;28;19908;-89
2022/09/21 03:19:53;;;;;;;;;;;9.00;58.90;;;;;;5073674;28;19944;-85
2022/09/21 03:22:23;;;;;;;;;;;9.00;58.90;;;;;;5074212;28;19919;-91
2022/09/21 03:24:49;;;;;;;;;;;9.00;58.90;;;;;;5072307;28;19963;-88
2022/09/21 03:27:21;;;;;;;;;;;8.90;58.90;;;;;;5073920;28;19924;-88
2022/09/21 03:29:46;;;;;;;;;;;9.00;58.80;;;;;;5072089;28;19908;-86
2022/09/21 03:32:13;;;;;;;;;;;8.90;58.90;;;;;;5072376;28;20586;-85
2022/09/21 03:34:39;;;;;;;;;;;8.90;59.00;;;;;;5092602;28;19912;-85
2022/09/21 03:37:05;;;;;;;;;;;9.00;59.10;;;;;;5092782;28;19939;-92
2022/09/21 03:39:31;;;;;;;;;;;8.90;59.20;;;;;;5092857;28;19911;-88
2022/09/21 03:41:56;;;;;;;;;;;8.90;59.20;;;;;;5093909;28;20003;-86
2022/09/21 03:44:22;;;;;;;;;;;8.90;59.10;;;;;;5093513;28;19924;-85
2022/09/21 03:46:49;;;;;;;;;;;8.90;59.10;;;;;;5092100;28;19947;-86
2022/09/21 03:49:15;;;;;;;;;;;8.80;59.10;;;;;;5093680;28;19912;-89
2022/09/21 03:51:40;;;;;;;;;;;8.80;59.10;;;;;;5092251;28;20002;-90
2022/09/21 03:54:05;;;;;;;;;;;8.80;59.10;;;;;;5093820;28;20004;-86
2022/09/21 03:56:31;;;;;;;;;;;8.80;59.10;;;;;;5090911;28;19916;-85
2022/09/21 03:58:56;;;;;;;;;;;8.70;59.10;;;;;;5093189;28;19919;-89
2022/09/21 04:01:22;;;;;;;;;;;8.70;59.10;;;;;;5092852;28;19938;-90
2022/09/21 04:03:48;;;;;;;;;;;8.70;59.20;;;;;;5092910;28;19920;-86
2022/09/21 04:06:13;;;;;;;;;;;8.70;59.40;;;;;;5093185;28;20329;-89
2022/09/21 04:08:39;;;;;;;;;;;8.70;59.60;;;;;;5093663;28;19950;-86
2022/09/21 04:11:12;;;;;;;;;;;8.70;59.60;;;;;;5091431;28;19916;-87
2022/09/21 04:13:37;;;;;;;;;;;8.70;59.60;;;;;;5093316;28;20228;-87
2022/09/21 04:16:03;;;;;;;;;;;8.70;59.50;;;;;;5091198;28;19958;-90
2022/09/21 04:18:29;;;;;;;;;;;8.70;59.40;;;;;;5091231;28;19912;-86
2022/09/21 04:20:54;;;;;;;;;;;8.60;59.30;;;;;;5091181;28;19955;-92
2022/09/21 04:23:20;;;;;;;;;;;8.50;59.20;;;;;;5092775;28;19909;-91
2022/09/21 04:25:47;;;;;;;;;;;8.60;59.10;;;;;;5091571;28;19924;-87
2022/09/21 04:28:13;;;;;;;;;;;8.50;59.10;;;;;;5092574;28;19919;-90
2022/09/21 04:30:39;;;;;;;;;;;8.50;59.20;;;;;;5091085;28;19916;-89
2022/09/21 04:33:04;;;;;;;;;;;8.50;59.30;;;;;;5084778;28;19995;-87
2022/09/21 04:35:30;;;;;;;;;;;8.50;59.40;;;;;;5071538;28;19927;-85
2022/09/21 04:37:55;;;;;;;;;;;8.50;59.30;;;;;;5072794;28;19924;-85
2022/09/21 04:40:22;;;;;;;;;;;8.40;59.40;;;;;;5070902;28;20414;-87
2022/09/21 04:42:53;;;;;;;;;;;8.50;59.30;;;;;;5072042;28;19991;-88
2022/09/21 04:45:19;;;;;;;;;;;8.50;59.30;;;;;;5070683;28;20009;-86
2022/09/21 04:47:45;;;;;;;;;;;8.40;59.20;;;;;;5070552;28;19912;-91
2022/09/21 04:50:11;;;;;;;;;;;8.50;59.30;;;;;;5070613;28;20305;-90
2022/09/21 04:52:36;;;;;;;;;;;8.40;59.40;;;;;;5071561;28;19995;-85
2022/09/21 04:55:02;;;;;;;;;;;8.40;59.40;;;;;;5071725;28;19920;-89
2022/09/21 04:57:27;;;;;;;;;;;8.40;59.40;;;;;;5071360;28;20414;-90
2022/09/21 04:59:53;;;;;;;;;;;8.40;59.50;;;;;;5071848;28;20286;-87
2022/09/21 05:02:19;;;;;;;;;;;8.40;59.50;;;;;;5071734;28;19908;-85
2022/09/21 05:04:45;;;;;;;;;;;8.40;59.50;;;;;;5071375;28;20378;-89
2022/09/21 05:07:11;;;;;;;;;;;8.40;59.50;;;;;;5071851;28;19920;-85
2022/09/21 05:12:20;;;;;;;;;;;8.40;59.60;;;;;;5071443;28;20325;-90
2022/09/21 05:14:46;;;;;;;;;;;8.50;59.70;;;;;;5070256;28;19912;-87
2022/09/21 05:17:11;;;;;;;;;;;8.50;59.90;;;;;;5070032;28;20413;-87
2022/09/21 05:19:37;;;;;;;;;;;8.50;60.00;;;;;;5070312;28;20011;-92
2022/09/21 05:22:02;;;;;;;;;;;8.50;60.20;;;;;;5070234;28;19920;-87
2022/09/21 05:24:28;;;;;;;;;;;8.50;60.40;;;;;;5070374;28;20295;-86
2022/09/21 05:26:53;;;;;;;;;;;8.60;60.70;;;;;;5071280;28;19928;-87
2022/09/21 05:29:19;;;;;;;;;;;8.70;61.10;;;;;;5071080;28;20306;-90
2022/09/21 05:31:47;;;;;;;;;;;8.80;61.60;;;;;;5070032;28;20359;-86
2022/09/21 05:34:28;;;;;;;;;;;9.00;62.00;;;;;;5086857;28;19974;-88
2022/09/21 05:37:02;;;;;;;;;;;9.20;62.40;;;;;;5091854;28;19928;-88
2022/09/21 05:39:28;;;;;;;;;;;9.40;62.90;;;;;;5091024;28;19912;-90
2022/09/21 05:41:54;;;;;;;;;;;9.70;63.20;;;;;;5091314;28;20015;-86
2022/09/21 05:44:20;;;;;;;;;;;9.90;63.60;;;;;;5089711;28;19955;-88
2022/09/21 05:46:53;;;;;;;;;;;10.30;63.90;;;;;;5091042;28;19923;-89
2022/09/21 05:49:28;;;;;;;;;;;10.60;64.30;;;;;;5091433;28;19915;-85
2022/09/21 05:52:02;;;;;;;;;;;11.00;64.80;;;;;;5091779;28;19916;-89
2022/09/21 05:54:33;;;;;;;;;;;11.30;65.20;;;;;;5090823;28;20010;-90
2022/09/21 05:56:58;;;;;;;;;;;11.80;65.90;;;;;;5089901;28;20018;-90
2022/09/21 05:59:31;;;;;;;;;;;12.30;66.50;;;;;;5089711;28;19978;-88
2022/09/21 06:02:04;;;;;;;;;;;12.70;66.90;;;;;;5089963;28;19931;-86
2022/09/21 06:04:30;;;;;;;;;;;13.20;67.30;;;;;;5090760;28;19916;-87
2022/09/21 06:06:55;;;;;;;;;;;13.70;67.50;;;;;;5090264;28;19923;-88
2022/09/21 06:09:21;;;;;;;;;;;14.10;67.50;;;;;;5092149;28;19987;-89
2022/09/21 06:11:46;;;;;;;;;;;14.60;67.40;;;;;;5090116;28;20067;-90
2022/09/21 06:14:12;;;;;;;;;;;15.00;67.30;;;;;;5091240;28;19908;-88
2022/09/21 06:16:41;;;;;;;;;;;15.50;67.30;;;;;;5091221;28;20026;-88
2022/09/21 06:19:10;;;;;;;;;;;15.90;67.10;;;;;;5090908;28;19908;-90
2022/09/21 06:21:36;;;;;;;;;;;16.30;66.80;;;;;;5087401;28;20272;-87
2022/09/21 06:24:01;;;;;;;;;;;16.70;66.20;;;;;;5085629;28;19970;-90
2022/09/21 06:26:27;;;;;;;;;;;17.10;66.20;;;;;;5093310;28;19920;-87
2022/09/21 06:28:53;;;;;;;;;;;17.50;66.00;;;;;;5082163;28;19912;-90
2022/09/21 06:31:19;;;;;;;;;;;17.90;66.50;;;;;;5095007;28;19916;-87
2022/09/21 06:33:44;;;;;;;;;;;18.30;66.10;;;;;;5087032;28;19999;-89
2022/09/21 06:36:10;;;;;;;;;;;18.70;66.30;;;;;;5074423;28;20280;-85
2022/09/21 06:38:35;;;;;;;;;;;19.10;66.40;;;;;;5083550;28;19914;-92
2022/09/21 06:41:02;;;;;;;;;;;19.50;66.30;;;;;;5093558;28;19970;-90
2022/09/21 06:43:28;;;;;;;;;;;19.90;66.20;;;;;;5089817;28;20012;-86
2022/09/21 06:45:55;;;;;;;;;;;20.30;66.00;;;;;;5082555;28;20027;-90
2022/09/21 06:48:21;;;;;;;;;;;20.70;65.70;;;;;;5072904;28;19909;-86
2022/09/21 06:50:46;;;;;;;;;;;21.10;65.60;;;;;;5091311;28;19961;-86
2022/09/21 06:53:13;;;;;;;;;;;21.50;65.20;;;;;;5084903;28;19916;-90
2022/09/21 06:55:39;;;;;;;;;;;22.00;65.10;;;;;;5087746;28;20366;-88
2022/09/21 06:58:04;;;;;;;;;;;22.30;64.30;;;;;;5088175;28;19966;-92
2022/09/21 07:00:30;;;;;;;;;;;22.70;64.00;;;;;;5090135;28;19962;-88
2022/09/21 07:02:56;;;;;;;;;;;23.10;63.70;;;;;;5091122;28;20290;-88
2022/09/21 07:05:22;;;;;;;;;;;23.40;64.00;;;;;;5090306;28;19924;-92
2022/09/21 07:07:55;;;;;;;;;;;23.80;63.30;;;;;;5090700;28;20085;-92
2022/09/21 07:10:20;;;;;;;;;;;24.20;63.60;;;;;;5087149;28;19917;-91
2022/09/21 07:12:46;;;;;;;;;;;24.60;63.80;;;;;;5070941;28;19924;-90
2022/09/21 07:15:12;;;;;;;;;;;24.90;63.90;;;;;;5070295;28;19916;-87
2022/09/21 07:17:38;;;;;;;;;;;25.20;63.70;;;;;;5070750;28;19917;-91
2022/09/21 07:20:05;;;;;;;;;;;25.60;63.90;;;;;;5070514;28;19917;-92
2022/09/21 07:22:31;;;;;;;;;;;25.80;63.00;;;;;;5069217;28;19912;-89
2022/09/21 07:24:57;;;;;;;;;;;26.10;63.10;;;;;;5068971;28;20590;-89
2022/09/21 07:27:23;;;;;;;;;;;26.40;63.00;;;;;;5070514;28;19958;-86
2022/09/21 07:29:49;;;;;;;;;;;26.70;62.60;;;;;;5068822;28;19947;-89
2022/09/21 07:32:14;;;;;;;;;;;26.90;61.10;;;;;;5069101;28;19917;-91
2022/09/21 07:34:40;;;;;;;;;;;27.10;61.30;;;;;;5068753;28;19967;-92
2022/09/21 07:37:05;;;;;;;;;;;27.20;59.80;;;;;;5069068;28;20325;-88
2022/09/21 07:39:31;;;;;;;;;;;27.40;61.60;;;;;;5069582;28;19916;-90
2022/09/21 07:42:00;;;;;;;;;;;27.60;60.10;;;;;;5069059;28;19936;-85
2022/09/21 07:44:25;;;;;;;;;;;27.80;59.80;;;;;;5071505;28;19920;-90
2022/09/21 07:46:51;;;;;;;;;;;28.10;59.60;;;;;;5072093;28;19970;-89
2022/09/21 07:49:16;;;;;;;;;;;28.30;58.80;;;;;;5090771;28;19916;-85
2022/09/21 07:51:42;;;;;;;;;;;28.50;56.70;;;;;;5089105;28;20431;-90
2022/09/21 07:54:08;;;;;;;;;;;28.60;57.50;;;;;;5089256;28;20437;-92
2022/09/21 07:56:35;;;;;;;;;;;28.80;59.20;;;;;;5089816;28;19966;-90
2022/09/21 07:59:04;;;;;;;;;;;29.00;58.00;;;;;;5091170;28;19923;-86
2022/09/21 08:01:30;;;;;;;;;;;29.20;55.50;;;;;;5088560;28;19922;-88
2022/09/21 08:03:56;;;;;;;;;;;29.30;56.30;;;;;;5091791;28;19915;-89
2022/09/21 08:06:23;;;;;;;;;;;29.60;56.70;;;;;;5090915;28;19920;-86
2022/09/21 08:08:49;;;;;;;;;;;29.90;57.50;;;;;;5088696;28;19920;-91
2022/09/21 08:11:21;;;;;;;;;;;30.10;57.30;;;;;;5090141;28;19922;-92
2022/09/21 08:14:07;;;;;;;;;;;30.40;56.50;;;;;;5088245;28;19916;-87
2022/09/21 08:16:32;;;;;;;;;;;30.70;57.10;;;;;;5089480;28;19916;-88
2022/09/21 08:18:58;;;;;;;;;;;31.00;56.50;;;;;;5090142;28;19927;-87
2022/09/21 08:21:24;;;;;;;;;;;31.30;56.10;;;;;;5088420;28;19924;-91
2022/09/21 08:23:49;;;;;;;;;;;31.60;55.80;;;;;;5088125;28;20011;-87
2022/09/21 08:26:19;;;;;;;;;;;31.70;53.60;;;;;;5090073;28;19934;-86
2022/09/21 08:28:47;;;;;;;;;;;31.80;53.90;;;;;;5088836;28;19967;-90
2022/09/21 08:31:13;;;;;;;;;;;32.10;53.60;;;;;;5088448;28;19959;-88
2022/09/21 08:33:39;;;;;;;;;;;32.30;51.30;;;;;;5088821;28;19920;-86
2022/09/21 08:36:04;;;;;;;;;;;32.50;49.70;;;;;;5089346;28;19920;-90
2022/09/21 08:38:34;;;;;;;;;;;32.70;51.30;;;;;;5089280;28;19916;-87
2022/09/21 08:41:00;;;;;;;;;;;32.80;49.60;;;;;;5088071;28;19930;-90
2022/09/21 08:43:31;;;;;;;;;;;32.90;48.90;;;;;;5088517;28;19912;-91
2022/09/21 08:45:58;;;;;;;;;;;33.10;48.80;;;;;;5090459;28;19928;-90
2022/09/21 08:48:27;;;;;;;;;;;33.30;45.70;;;;;;5084764;28;19959;-93
2022/09/21 08:50:58;;;;;;;;;;;33.30;46.00;;;;;;5090064;28;19935;-92
2022/09/21 08:53:35;;;;;;;;;;;33.40;45.30;;;;;;5090412;28;20307;-89
2022/09/21 08:56:01;;;;;;;;;;;33.50;46.60;;;;;;5089636;28;20336;-91
2022/09/21 08:58:28;;;;;;;;;;;33.80;44.80;;;;;;5091577;28;20294;-89
2022/09/21 09:01:12;;;;;;;;;;;33.80;44.10;;;;;;5089105;28;20014;-90
2022/09/21 09:03:57;;;;;;;;;;;34.10;43.70;;;;;;5089724;28;19916;-87
2022/09/21 09:06:42;;;;;;;;;;;34.30;42.00;;;;;;5090649;28;19974;-86
2022/09/21 09:09:22;;;;;;;;;;;34.40;39.80;;;;;;5092124;28;19938;-86
2022/09/21 09:12:08;;;;;;;;;;;34.40;37.00;;;;;;5095232;28;19920;-89
2022/09/21 09:14:37;;;;;;;;;;;34.40;36.90;;;;;;5090607;28;19928;-89
2022/09/21 09:17:17;;;;;;;;;;;34.50;35.80;;;;;;5091789;28;19925;-87
2022/09/21 09:19:50;;;;;;;;;;;34.50;35.50;;;;;;5092404;28;20020;-87
2022/09/21 09:22:19;;;;;;;;;;;34.60;34.00;;;;;;5089548;28;19920;-88
2022/09/21 09:24:49;;;;;;;;;;;34.50;34.00;;;;;;5088916;28;20391;-89
2022/09/21 09:27:18;;;;;;;;;;;34.50;32.60;;;;;;5088098;28;19912;-87
2022/09/21 09:29:53;;;;;;;;;;;34.50;33.50;;;;;;5091473;28;19914;-87
2022/09/21 09:32:21;;;;;;;;;;;34.70;33.70;;;;;;5092122;28;19933;-91
2022/09/21 09:34:52;;;;;;;;;;;34.80;32.40;;;;;;5089252;28;20388;-90
2022/09/21 09:37:19;;;;;;;;;;;34.90;33.20;;;;;;5092295;28;19926;-88
2022/09/21 09:39:50;;;;;;;;;;;35.10;32.80;;;;;;5088853;28;19912;-90
2022/09/21 09:42:34;;;;;;;;;;;35.30;32.50;;;;;;5087969;28;19984;-90
2022/09/21 09:45:19;;;;;;;;;;;35.50;31.70;;;;;;5087463;28;19981;-90
2022/09/21 09:47:57;;;;;;;;;;;35.50;30.80;;;;;;5075582;28;20011;-92
2022/09/21 09:50:28;;;;;;;;;;;35.70;29.60;;;;;;5070260;28;19923;-88
2022/09/21 09:52:58;;;;;;;;;;;35.70;30.00;;;;;;5068297;28;20005;-89
2022/09/21 09:55:25;;;;;;;;;;;36.00;29.80;;;;;;5068039;28;19929;-92
2022/09/21 09:57:53;;;;;;;;;;;36.10;28.80;;;;;;5070620;28;20441;-88
2022/09/21 10:00:20;;;;;;;;;;;36.30;29.30;;;;;;5072234;28;19970;-87
2022/09/21 10:02:49;;;;;;;;;;;36.50;28.70;;;;;;5073528;28;20310;-89
2022/09/21 10:05:21;;;;;;;;;;;36.60;27.40;;;;;;5069594;28;19923;-92
2022/09/21 10:07:47;;;;;;;;;;;36.60;26.70;;;;;;5067776;28;20611;-87
2022/09/21 10:10:27;;;;;;;;;;;36.50;25.70;;;;;;5068952;28;19940;-89
2022/09/21 10:12:54;;;;;;;;;;;36.50;25.20;;;;;;5071767;28;19993;-93
2022/09/21 10:15:22;;;;;;;;;;;36.50;25.00;;;;;;5072216;28;19924;-92
2022/09/21 10:17:56;;;;;;;;;;;36.60;25.60;;;;;;5069102;28;19912;-89
2022/09/21 10:20:21;;;;;;;;;;;36.40;24.30;;;;;;5072459;28;19924;-89
2022/09/21 10:22:48;;;;;;;;;;;35.80;24.30;;;;;;5071623;28;20364;-90
2022/09/21 10:25:17;;;;;;;;;;;35.60;23.80;;;;;;5069335;28;19943;-87
2022/09/21 10:27:44;;;;;;;;;;;35.50;24.20;;;;;;5069321;28;19919;-89
2022/09/21 10:30:28;;;;;;;;;;;35.60;24.90;;;;;;5067097;28;19928;-93
2022/09/21 10:32:57;;;;;;;;;;;35.90;25.10;;;;;;5068213;28;19916;-88
2022/09/21 10:35:23;;;;;;;;;;;36.30;24.90;;;;;;5068740;28;19934;-87
2022/09/21 10:38:07;;;;;;;;;;;36.60;24.30;;;;;;5067615;28;19971;-89
2022/09/21 10:40:35;;;;;;;;;;;36.80;23.40;;;;;;5067957;28;19924;-91
2022/09/21 10:43:00;;;;;;;;;;;36.80;21.80;;;;;;5068717;28;20035;-87
2022/09/21 10:45:27;;;;;;;;;;;36.50;21.10;;;;;;5067026;28;20015;-89
2022/09/21 10:47:58;;;;;;;;;;;36.30;21.60;;;;;;5078370;28;19912;-88
2022/09/21 10:50:28;;;;;;;;;;;36.20;22.20;;;;;;5094257;28;19974;-93
2022/09/21 10:52:59;;;;;;;;;;;36.30;21.90;;;;;;5090193;28;20886;-92
2022/09/21 10:55:27;;;;;;;;;;;36.20;21.00;;;;;;5087964;28;19928;-89
2022/09/21 10:57:52;;;;;;;;;;;35.80;20.50;;;;;;5091783;28;20335;-89
2022/09/21 11:00:24;;;;;;;;;;;35.70;21.10;;;;;;5088638;28;19978;-93
2022/09/21 11:02:50;;;;;;;;;;;35.80;21.30;;;;;;5087583;28;19912;-90
2022/09/21 11:05:22;;;;;;;;;;;35.80;21.30;;;;;;5088733;28;19927;-91
2022/09/21 11:07:50;;;;;;;;;;;35.50;20.70;;;;;;5090982;28;20456;-89
2022/09/21 11:10:25;;;;;;;;;;;34.70;21.20;;;;;;5095655;28;20114;-87
2022/09/21 11:13:11;;;;;;;;;;;33.90;21.60;;;;;;5092018;28;19912;-90
2022/09/21 11:15:49;;;;;;;;;;;33.50;22.60;;;;;;5093697;28;19993;-90
2022/09/21 11:18:18;;;;;;;;;;;33.70;22.60;;;;;;5095974;28;19915;-92
2022/09/21 11:20:49;;;;;;;;;;;33.50;22.20;;;;;;5091516;28;20371;-90
2022/09/21 11:23:16;;;;;;;;;;;33.40;22.60;;;;;;5093447;28;19920;-90
2022/09/21 11:25:46;;;;;;;;;;;33.50;22.70;;;;;;5093005;28;19970;-90
2022/09/21 11:28:24;;;;;;;;;;;34.00;22.80;;;;;;5093903;28;19919;-86
2022/09/21 11:30:50;;;;;;;;;;;34.50;22.90;;;;;;5092140;28;19937;-92
2022/09/21 11:33:31;;;;;;;;;;;34.70;21.70;;;;;;5093862;28;20016;-87
2022/09/21 11:35:57;;;;;;;;;;;34.30;21.70;;;;;;5091173;28;20018;-93
2022/09/21 11:38:50;;;;;;;;;;;34.00;22.20;;;;;;5090521;28;19919;-88
2022/09/21 11:41:23;;;;;;;;;;;34.30;22.40;;;;;;5093049;28;19995;-88
2022/09/21 11:43:52;;;;;;;;;;;34.80;22.30;;;;;;5093742;28;19982;-87
2022/09/21 11:46:36;;;;;;;;;;;35.20;21.40;;;;;;5090359;28;19920;-89
2022/09/21 11:49:07;;;;;;;;;;;35.40;20.80;;;;;;5071247;28;20275;-90
2022/09/21 11:51:39;;;;;;;;;;;35.50;19.80;;;;;;5070930;28;20286;-90
2022/09/21 11:54:19;;;;;;;;;;;35.40;20.00;;;;;;5071495;28;19919;-94
2022/09/21 11:57:04;;;;;;;;;;;35.40;20.00;;;;;;5069696;28;20011;-86
2022/09/21 11:59:42;;;;;;;;;;;35.40;19.90;;;;;;5070465;28;19920;-93
2022/09/21 12:02:21;;;;;;;;;;;35.70;20.50;;;;;;5069509;28;19966;-89
2022/09/21 12:05:16;;;;;;;;;;;36.20;20.20;;;;;;5074475;28;19912;-89
2022/09/21 12:07:42;;;;;;;;;;;36.30;18.80;;;;;;5034606;28;20015;-91
2022/09/21 12:10:16;;;;;;;;;;;36.00;18.70;;;;;;5071572;28;19956;-90
2022/09/21 12:12:52;;;;;;;;;;;35.80;18.50;;;;;;5070859;28;19912;-93
2022/09/21 12:15:37;;;;;;;;;;;35.80;19.00;;;;;;5070651;28;19928;-89
2022/09/21 12:18:08;;;;;;;;;;;35.90;18.30;;;;;;5070428;28;19912;-93
2022/09/21 12:20:44;;;;;;;;;;;35.60;18.50;;;;;;5072892;28;19974;-92
2022/09/21 12:23:13;;;;;;;;;;;35.50;18.70;;;;;;5072534;28;19912;-89
2022/09/21 12:25:45;;;;;;;;;;;35.60;18.60;;;;;;5070927;28;19932;-87
2022/09/21 12:28:21;;;;;;;;;;;35.60;18.30;;;;;;5073231;28;19916;-88
2022/09/21 12:30:49;;;;;;;;;;;35.70;18.40;;;;;;5071533;28;19960;-90
2022/09/21 12:33:20;;;;;;;;;;;35.40;18.20;;;;;;5071673;28;20028;-89
2022/09/21 12:36:05;;;;;;;;;;;34.80;18.40;;;;;;5071826;28;20006;-94
2022/09/21 12:38:34;;;;;;;;;;;34.70;18.60;;;;;;5072701;28;20003;-87
2022/09/21 12:41:08;;;;;;;;;;;34.80;18.60;;;;;;5072526;28;19927;-91
2022/09/21 12:43:46;;;;;;;;;;;34.70;18.10;;;;;;5070710;28;19916;-87
2022/09/21 12:46:16;;;;;;;;;;;34.60;18.40;;;;;;5073721;28;19952;-93
2022/09/21 12:48:43;;;;;;;;;;;34.30;18.20;;;;;;5073852;28;19959;-89
2022/09/21 12:51:12;;;;;;;;;;;34.30;18.70;;;;;;5070436;28;19920;-92
2022/09/21 12:53:44;;;;;;;;;;;34.40;19.00;;;;;;5071524;28;20022;-90
2022/09/21 12:56:21;;;;;;;;;;;34.40;18.90;;;;;;5073338;28;20576;-88
2022/09/21 12:58:56;;;;;;;;;;;34.30;18.90;;;;;;5071193;28;19912;-87
2022/09/21 13:01:42;;;;;;;;;;;34.30;19.30;;;;;;5071552;28;20328;-93
2022/09/21 13:04:11;;;;;;;;;;;33.70;19.40;;;;;;5071064;28;19912;-92
2022/09/21 13:06:39;;;;;;;;;;;32.80;19.70;;;;;;5071471;28;19952;-88
2022/09/21 13:09:09;;;;;;;;;;;32.10;20.20;;;;;;5067657;28;19912;-93
2022/09/21 13:11:48;;;;;;;;;;;31.50;20.90;;;;;;5070535;28;19920;-89
2022/09/21 13:14:14;;;;;;;;;;;31.00;21.40;;;;;;5071373;28;19916;-94
2022/09/21 13:16:39;;;;;;;;;;;30.60;21.80;;;;;;5075875;28;19989;-90
2022/09/21 13:19:22;;;;;;;;;;;30.50;22.10;;;;;;5069984;28;20376;-88
2022/09/21 13:22:10;;;;;;;;;;;30.50;22.30;;;;;;5068973;28;20413;-86
2022/09/21 13:24:35;;;;;;;;;;;30.30;22.50;;;;;;5072353;28;19934;-88
2022/09/21 13:27:04;;;;;;;;;;;30.00;22.80;;;;;;5069869;28;19920;-90
2022/09/21 13:29:31;;;;;;;;;;;29.80;23.20;;;;;;5069513;28;20283;-87
2022/09/21 13:31:59;;;;;;;;;;;29.50;23.40;;;;;;5067713;28;20007;-93
2022/09/21 13:34:26;;;;;;;;;;;29.30;23.60;;;;;;5071284;28;19912;-88
2022/09/21 13:37:13;;;;;;;;;;;29.10;23.20;;;;;;5067462;28;20009;-92
2022/09/21 13:39:56;;;;;;;;;;;28.80;23.40;;;;;;5071081;28;19919;-87
2022/09/21 13:42:31;;;;;;;;;;;28.40;23.70;;;;;;5070781;28;20294;-90
2022/09/21 13:45:03;;;;;;;;;;;28.20;24.10;;;;;;5070553;28;19982;-90
2022/09/21 13:47:32;;;;;;;;;;;27.90;24.40;;;;;;5075665;28;19916;-94
2022/09/21 13:50:00;;;;;;;;;;;27.70;24.40;;;;;;5089593;28;19912;-93
2022/09/21 13:52:28;;;;;;;;;;;27.50;24.50;;;;;;5087819;28;19981;-86
2022/09/21 13:54:55;;;;;;;;;;;27.30;24.70;;;;;;5089310;28;19927;-90
2022/09/21 13:57:36;;;;;;;;;;;27.10;24.80;;;;;;5090602;28;19981;-89
2022/09/21 14:00:02;;;;;;;;;;;26.80;25.00;;;;;;5088663;28;19984;-93
2022/09/21 14:02:33;;;;;;;;;;;26.50;25.30;;;;;;5087415;28;19920;-93
2022/09/21 14:05:22;;;;;;;;;;;26.30;25.40;;;;;;5089207;28;19943;-88
2022/09/21 14:07:53;;;;;;;;;;;26.20;25.60;;;;;;5088993;28;19989;-93
2022/09/21 14:10:20;;;;;;;;;;;26.20;25.70;;;;;;5088458;28;19932;-91
2022/09/21 14:12:45;;;;;;;;;;;26.10;25.80;;;;;;5090513;28;19918;-92
2022/09/21 14:15:17;;;;;;;;;;;26.00;25.90;;;;;;5089783;28;19991;-90
2022/09/21 14:17:44;;;;;;;;;;;25.90;26.10;;;;;;5090864;28;19947;-88
2022/09/21 14:20:24;;;;;;;;;;;25.80;26.30;;;;;;5089714;28;19947;-89
2022/09/21 14:23:09;;;;;;;;;;;25.70;26.50;;;;;;5087649;28;19951;-87
2022/09/21 14:25:49;;;;;;;;;;;25.60;26.80;;;;;;5089852;28;20351;-87
2022/09/21 14:28:17;;;;;;;;;;;25.60;27.20;;;;;;5086824;28;19912;-90
2022/09/21 14:30:48;;;;;;;;;;;25.60;27.30;;;;;;5087404;28;19920;-90
2022/09/21 14:33:25;;;;;;;;;;;25.60;27.40;;;;;;5091457;28;20441;-89
2022/09/21 14:35:50;;;;;;;;;;;25.40;27.50;;;;;;5091712;28;19935;-90
2022/09/21 14:38:24;;;;;;;;;;;25.40;27.70;;;;;;5089595;28;19908;-93